createdAt,value
2022-11-27T00:02:44.427Z,8.50
2022-11-27T00:05:42.042Z,8.60
2022-11-27T00:08:39.494Z,9.40
2022-11-27T00:11:40.468Z,9.60
2022-11-27T00:14:37.907Z,8.90
2022-11-27T00:17:35.359Z,9.20
2022-11-27T00:20:32.829Z,9.30
2022-11-27T00:23:30.290Z,9.50
2022-11-27T00:26:27.960Z,9.30
2022-11-27T00:29:29.314Z,10.00
2022-11-27T00:32:26.804Z,9.60
2022-11-27T00:35:24.273Z,10.20
2022-11-27T00:38:21.726Z,9.10
2022-11-27T00:41:19.205Z,8.90
2022-11-27T00:44:16.648Z,9.40
2022-11-27T00:47:14.126Z,9.30
2022-11-27T00:50:11.606Z,9.10
2022-11-27T00:53:09.069Z,9.00
2022-11-27T00:56:06.598Z,9.00
2022-11-27T00:59:04.069Z,7.90
2022-11-27T01:02:01.606Z,8.10
2022-11-27T01:04:59.096Z,7.70
2022-11-27T01:07:56.623Z,8.00
2022-11-27T01:10:55.123Z,8.30
2022-11-27T01:13:52.823Z,8.60
2022-11-27T01:16:50.269Z,9.20
2022-11-27T01:19:47.720Z,9.00
2022-11-27T01:22:45.173Z,9.20
2022-11-27T01:25:42.637Z,9.50
2022-11-27T01:28:40.827Z,9.00
2022-11-27T01:31:38.326Z,9.40
2022-11-27T01:34:35.833Z,10.10
2022-11-27T01:37:33.293Z,9.30
2022-11-27T01:40:30.745Z,8.90
2022-11-27T01:43:28.242Z,9.60
2022-11-27T01:46:25.715Z,10.10
2022-11-27T01:49:23.311Z,9.80
2022-11-27T01:52:20.772Z,9.40
2022-11-27T01:55:20.549Z,9.10
2022-11-27T01:58:17.992Z,9.60
2022-11-27T02:01:16.560Z,9.30
2022-11-27T02:04:14.085Z,11.20
2022-11-27T02:07:11.621Z,9.30
2022-11-27T02:10:09.116Z,10.50
2022-11-27T02:13:06.556Z,10.70
2022-11-27T02:16:04.056Z,10.50
2022-11-27T02:19:01.581Z,10.50
2022-11-27T02:21:59.024Z,11.00
2022-11-27T02:24:56.560Z,10.30
2022-11-27T02:27:54.009Z,10.70
2022-11-27T02:30:51.504Z,9.80
2022-11-27T02:33:49.039Z,9.80
2022-11-27T02:36:46.497Z,10.60
2022-11-27T02:39:43.958Z,11.10
2022-11-27T02:42:41.389Z,11.10
2022-11-27T02:45:38.815Z,11.10
2022-11-27T02:48:36.268Z,11.10
2022-11-27T02:51:33.853Z,10.90
2022-11-27T02:54:31.360Z,11.20
2022-11-27T02:57:28.826Z,12.30
2022-11-27T03:00:26.341Z,11.30
2022-11-27T03:03:23.795Z,11.70
2022-11-27T03:06:21.269Z,11.70
2022-11-27T03:09:18.724Z,10.30
2022-11-27T03:12:16.186Z,11.70
2022-11-27T03:15:13.645Z,11.30
2022-11-27T03:18:11.117Z,10.30
2022-11-27T03:21:08.613Z,10.90
2022-11-27T03:24:06.070Z,11.80
2022-11-27T03:27:03.948Z,12.90
2022-11-27T03:30:01.399Z,11.80
2022-11-27T03:32:58.876Z,10.70
2022-11-27T03:35:56.334Z,12.90
2022-11-27T03:38:54.189Z,12.20
2022-11-27T03:41:51.694Z,11.90
2022-11-27T03:44:49.225Z,12.60
2022-11-27T03:47:47.006Z,12.70
2022-11-27T03:50:44.495Z,11.80
2022-11-27T03:53:41.947Z,11.70
2022-11-27T03:56:39.401Z,11.40
2022-11-27T03:59:36.848Z,11.30
2022-11-27T04:02:34.342Z,12.40
2022-11-27T04:05:31.829Z,12.00
2022-11-27T04:08:29.513Z,11.30
2022-11-27T04:11:27.481Z,12.30
2022-11-27T04:14:24.956Z,12.40
2022-11-27T04:17:22.409Z,10.90
2022-11-27T04:20:19.855Z,11.90
2022-11-27T04:23:17.335Z,11.90
2022-11-27T04:26:14.792Z,12.00
2022-11-27T04:29:12.248Z,11.40
2022-11-27T04:32:09.725Z,12.30
2022-11-27T04:35:07.213Z,12.10
2022-11-27T04:38:04.678Z,12.00
2022-11-27T04:41:02.114Z,11.10
2022-11-27T04:43:59.577Z,12.30
2022-11-27T04:46:57.113Z,12.10
2022-11-27T04:49:54.603Z,12.50
2022-11-27T04:52:52.082Z,12.60
2022-11-27T04:55:49.538Z,12.60
2022-11-27T04:58:46.989Z,13.30
2022-11-27T05:01:44.454Z,13.50
2022-11-27T05:04:42.038Z,13.40
2022-11-27T05:07:39.732Z,13.30
2022-11-27T05:10:37.200Z,13.30
2022-11-27T05:13:34.658Z,14.60
2022-11-27T05:16:32.168Z,13.20
2022-11-27T05:19:29.671Z,13.10
2022-11-27T05:22:27.148Z,14.10
2022-11-27T05:25:24.596Z,14.40
2022-11-27T05:28:26.461Z,13.30
2022-11-27T05:31:24.503Z,13.60
2022-11-27T05:34:21.993Z,13.20
2022-11-27T05:37:20.144Z,12.90
2022-11-27T05:40:17.792Z,13.10
2022-11-27T05:43:15.260Z,13.60
2022-11-27T05:46:12.738Z,13.10
2022-11-27T05:49:10.250Z,14.70
2022-11-27T05:52:07.678Z,13.30
2022-11-27T05:55:05.186Z,13.00
2022-11-27T05:58:02.790Z,13.10
2022-11-27T06:01:00.230Z,13.20
2022-11-27T06:03:57.688Z,12.90
2022-11-27T06:06:55.179Z,14.20
2022-11-27T06:09:52.640Z,11.80
2022-11-27T06:12:50.097Z,13.70
2022-11-27T06:15:47.564Z,13.10
2022-11-27T06:18:45.021Z,13.10
2022-11-27T06:21:42.498Z,12.40
2022-11-27T06:24:40.135Z,13.60
2022-11-27T06:27:37.871Z,12.70
2022-11-27T06:30:35.336Z,13.10
2022-11-27T06:33:32.820Z,13.20
2022-11-27T06:36:30.372Z,12.90
2022-11-27T06:39:27.844Z,12.50
2022-11-27T06:42:25.322Z,12.60
2022-11-27T06:45:22.835Z,12.80
2022-11-27T06:48:20.361Z,12.40
2022-11-27T06:51:17.813Z,13.40
2022-11-27T06:54:15.259Z,16.90
2022-11-27T06:57:12.688Z,17.60
2022-11-27T07:00:10.186Z,15.30
2022-11-27T07:03:07.643Z,12.60
2022-11-27T07:06:05.112Z,13.20
2022-11-27T07:09:02.582Z,11.80
2022-11-27T07:12:00.010Z,13.60
2022-11-27T07:14:59.667Z,12.00
2022-11-27T07:18:00.486Z,11.60
2022-11-27T07:20:57.936Z,11.60
2022-11-27T07:23:56.650Z,12.00
2022-11-27T07:26:54.128Z,10.60
2022-11-27T07:29:51.735Z,10.40
2022-11-27T07:32:49.196Z,10.40
2022-11-27T07:35:46.668Z,10.90
2022-11-27T07:38:44.147Z,11.90
2022-11-27T07:41:41.612Z,10.80
2022-11-27T07:44:39.314Z,12.50
2022-11-27T07:47:37.142Z,11.60
2022-11-27T07:50:34.593Z,11.20
2022-11-27T07:53:32.043Z,12.10
2022-11-27T07:56:30.547Z,12.00
2022-11-27T07:59:28.069Z,12.40
2022-11-27T08:02:25.529Z,13.80
2022-11-27T08:05:22.982Z,12.10
2022-11-27T08:08:20.459Z,12.80
2022-11-27T08:11:18.210Z,12.90
2022-11-27T08:14:16.946Z,11.80
2022-11-27T08:17:14.441Z,11.30
2022-11-27T08:20:11.903Z,10.80
2022-11-27T08:23:09.352Z,10.30
2022-11-27T08:26:07.292Z,11.30
2022-11-27T08:29:06.702Z,10.80
2022-11-27T08:32:04.263Z,11.00
2022-11-27T08:35:02.746Z,11.90
2022-11-27T08:38:00.367Z,11.80
2022-11-27T08:40:57.822Z,12.90
2022-11-27T08:43:55.287Z,12.50
2022-11-27T08:46:52.768Z,12.20
2022-11-27T08:49:50.252Z,12.60
2022-11-27T08:52:47.703Z,11.60
2022-11-27T08:55:45.163Z,10.70
2022-11-27T08:58:42.699Z,10.40
2022-11-27T09:01:40.192Z,8.80
2022-11-27T09:04:37.728Z,8.30
2022-11-27T09:07:35.231Z,7.70
2022-11-27T09:10:33.196Z,8.10
2022-11-27T09:13:30.648Z,7.00
2022-11-27T09:16:30.243Z,7.70
2022-11-27T09:19:27.781Z,7.50
2022-11-27T09:22:25.257Z,7.40
2022-11-27T09:25:23.337Z,6.80
2022-11-27T09:28:20.786Z,7.40
2022-11-27T09:31:18.240Z,7.10
2022-11-27T09:34:15.780Z,8.90
2022-11-27T09:37:13.253Z,7.00
2022-11-27T09:40:11.152Z,7.50
2022-11-27T09:43:10.167Z,17.80
2022-11-27T09:46:09.398Z,11.90
2022-11-27T09:49:06.940Z,7.60
2022-11-27T09:52:04.713Z,5.60
2022-11-27T09:55:02.232Z,5.00
2022-11-27T09:57:59.667Z,4.60
2022-11-27T10:00:57.133Z,4.20
2022-11-27T10:03:54.614Z,4.20
2022-11-27T10:06:52.078Z,4.10
2022-11-27T10:09:49.552Z,4.20
2022-11-27T10:12:47.021Z,4.70
2022-11-27T10:15:45.542Z,4.40
2022-11-27T10:18:43.203Z,4.20
2022-11-27T10:21:40.662Z,4.40
2022-11-27T10:24:38.955Z,4.90
2022-11-27T10:27:36.539Z,5.60
2022-11-27T10:30:34.030Z,5.30
2022-11-27T10:33:31.488Z,6.30
2022-11-27T10:36:28.958Z,9.80
2022-11-27T10:39:26.459Z,6.70
2022-11-27T10:42:23.952Z,5.80
2022-11-27T10:45:21.423Z,5.90
2022-11-27T10:48:18.933Z,5.20
2022-11-27T10:51:16.398Z,15.50
2022-11-27T10:54:13.844Z,21.80
2022-11-27T10:57:11.297Z,6.00
2022-11-27T11:00:09.107Z,5.50
2022-11-27T11:03:06.653Z,5.10
2022-11-27T11:06:19.943Z,5.10
2022-11-27T11:09:18.875Z,4.50
2022-11-27T11:12:16.958Z,5.40
2022-11-27T11:15:14.685Z,5.00
2022-11-27T11:18:12.150Z,5.70
2022-11-27T11:21:09.616Z,5.90
2022-11-27T11:24:07.087Z,5.30
2022-11-27T11:27:04.556Z,6.80
2022-11-27T11:30:02.064Z,10.90
2022-11-27T11:32:59.513Z,16.00
2022-11-27T11:35:57.031Z,5.90
2022-11-27T11:38:54.477Z,4.60
2022-11-27T11:41:51.978Z,3.70
2022-11-27T11:44:49.457Z,4.20
2022-11-27T11:47:47.193Z,3.90
2022-11-27T11:50:44.717Z,4.70
2022-11-27T11:53:42.767Z,5.10
2022-11-27T11:56:41.704Z,4.60
2022-11-27T11:59:43.731Z,5.00
2022-11-27T12:02:42.932Z,5.00
2022-11-27T12:05:40.448Z,4.80
2022-11-27T12:08:37.910Z,4.80
2022-11-27T12:11:35.469Z,5.00
2022-11-27T12:14:32.984Z,6.00
2022-11-27T12:17:30.498Z,4.80
2022-11-27T12:20:27.964Z,4.50
2022-11-27T12:23:25.416Z,5.30
2022-11-27T12:26:22.880Z,4.50
2022-11-27T12:29:20.563Z,4.60
2022-11-27T12:32:18.016Z,4.20
2022-11-27T12:35:15.785Z,4.30
2022-11-27T12:38:13.236Z,4.60
2022-11-27T12:41:10.747Z,4.00
2022-11-27T12:44:08.385Z,3.90
2022-11-27T12:47:05.865Z,3.90
2022-11-27T12:50:03.620Z,3.80
2022-11-27T12:53:01.268Z,4.60
2022-11-27T12:55:59.164Z,4.00
2022-11-27T12:58:57.352Z,3.80
2022-11-27T13:01:55.063Z,3.90
2022-11-27T13:04:52.697Z,3.80
2022-11-27T13:07:50.400Z,3.90
2022-11-27T13:10:47.959Z,4.00
2022-11-27T13:13:45.480Z,4.00
2022-11-27T13:16:45.952Z,4.70
2022-11-27T13:19:43.992Z,5.10
2022-11-27T13:22:41.516Z,4.40
2022-11-27T13:25:39.793Z,6.40
2022-11-27T13:28:38.592Z,4.70
2022-11-27T13:31:38.327Z,4.80
2022-11-27T13:34:39.172Z,4.20
2022-11-27T13:37:37.317Z,4.50
2022-11-27T13:40:37.919Z,5.00
2022-11-27T13:43:35.572Z,5.40
2022-11-27T13:46:33.635Z,5.50
2022-11-27T13:49:31.092Z,5.30
2022-11-27T13:52:29.784Z,5.00
2022-11-27T13:55:27.757Z,5.30
2022-11-27T13:58:25.268Z,5.10
2022-11-27T14:01:23.290Z,5.70
2022-11-27T14:04:21.313Z,6.00
2022-11-27T14:07:18.805Z,5.70
2022-11-27T14:10:16.306Z,5.80
2022-11-27T14:13:13.792Z,6.70
2022-11-27T14:16:11.314Z,6.10
2022-11-27T14:19:09.494Z,5.90
2022-11-27T14:22:07.014Z,5.60
2022-11-27T14:25:04.458Z,4.80
2022-11-27T14:28:03.027Z,5.40
2022-11-27T14:31:00.932Z,5.80
2022-11-27T14:34:14.766Z,6.10
2022-11-27T14:37:14.262Z,5.30
2022-11-27T14:40:12.281Z,6.00
2022-11-27T14:43:09.734Z,5.40
2022-11-27T14:46:08.475Z,5.60
2022-11-27T14:49:06.057Z,5.00
2022-11-27T14:52:03.981Z,5.20
2022-11-27T14:55:01.535Z,4.60
2022-11-27T14:57:58.976Z,4.10
2022-11-27T15:00:56.419Z,4.60
2022-11-27T15:03:54.032Z,4.90
2022-11-27T15:06:51.979Z,6.30
2022-11-27T15:09:49.909Z,5.80
2022-11-27T15:12:47.419Z,6.10
2022-11-27T15:15:45.299Z,6.90
2022-11-27T15:18:43.483Z,6.80
2022-11-27T15:21:41.410Z,7.20
2022-11-27T15:24:39.786Z,6.80
2022-11-27T15:27:37.236Z,7.30
2022-11-27T15:30:34.848Z,7.30
2022-11-27T15:33:32.333Z,6.80
2022-11-27T15:36:30.178Z,5.80
2022-11-27T15:39:27.800Z,6.60
2022-11-27T15:42:26.787Z,6.70
2022-11-27T15:45:24.865Z,6.40
2022-11-27T15:48:22.535Z,6.60
2022-11-27T15:51:20.170Z,6.40
2022-11-27T15:54:18.084Z,6.20
2022-11-27T15:57:16.537Z,7.10
2022-11-27T16:00:15.354Z,7.90
2022-11-27T16:03:14.911Z,9.20
2022-11-27T16:06:12.983Z,9.80
2022-11-27T16:09:11.164Z,10.60
2022-11-27T16:12:09.498Z,11.30
2022-11-27T16:15:07.506Z,12.20
2022-11-27T16:18:07.218Z,12.20
2022-11-27T16:21:05.518Z,13.20
2022-11-27T16:24:07.260Z,13.80
2022-11-27T16:27:05.848Z,12.70
2022-11-27T16:30:05.909Z,12.70
2022-11-27T16:33:03.469Z,13.20
2022-11-27T16:36:02.703Z,12.30
2022-11-27T16:39:00.253Z,11.30
2022-11-27T16:41:58.528Z,11.30
2022-11-27T16:44:59.879Z,10.90
2022-11-27T16:47:59.979Z,11.50
2022-11-27T16:50:58.096Z,10.90
2022-11-27T16:53:56.704Z,10.00
2022-11-27T16:56:54.834Z,10.70
2022-11-27T16:59:54.594Z,9.40
2022-11-27T17:02:52.670Z,8.80
2022-11-27T17:05:51.670Z,7.40
2022-11-27T17:08:49.565Z,7.70
2022-11-27T17:11:48.902Z,8.10
2022-11-27T17:14:47.788Z,7.60
2022-11-27T17:17:46.244Z,7.30
2022-11-27T17:20:46.532Z,7.60
2022-11-27T17:23:47.146Z,8.90
2022-11-27T17:26:48.564Z,8.20
2022-11-27T17:29:46.761Z,8.20
2022-11-27T17:32:44.338Z,8.80
2022-11-27T17:35:41.780Z,9.10
2022-11-27T17:38:40.205Z,8.50
2022-11-27T17:41:38.974Z,7.90
2022-11-27T17:44:37.248Z,7.90
2022-11-27T17:47:35.553Z,8.00
2022-11-27T17:50:33.738Z,7.70
2022-11-27T17:53:32.768Z,9.30
2022-11-27T17:56:30.683Z,8.70
2022-11-27T17:59:30.101Z,8.40
2022-11-27T18:02:29.126Z,10.90
2022-11-27T18:05:27.502Z,12.00
2022-11-27T18:08:26.060Z,18.50
2022-11-27T18:11:25.471Z,19.20
2022-11-27T18:14:24.050Z,15.80
2022-11-27T18:17:24.551Z,19.10
2022-11-27T18:20:24.321Z,20.90
2022-11-27T18:23:23.444Z,20.30
2022-11-27T18:26:30.166Z,21.10
2022-11-27T18:29:39.136Z,14.70
2022-11-27T18:32:37.834Z,12.00
2022-11-27T18:35:36.962Z,10.20
2022-11-27T18:38:35.571Z,8.70
2022-11-27T18:41:34.165Z,9.00
2022-11-27T18:44:32.846Z,10.10
2022-11-27T18:47:34.295Z,8.60
2022-11-27T18:50:32.435Z,8.20
2022-11-27T18:53:33.578Z,8.80
2022-11-27T18:56:32.103Z,8.40
2022-11-27T18:59:33.424Z,8.30
2022-11-27T19:02:31.513Z,9.80
2022-11-27T19:05:30.319Z,8.70
2022-11-27T19:08:29.312Z,10.50
2022-11-27T19:11:28.786Z,9.80
2022-11-27T19:14:27.520Z,9.90
2022-11-27T19:17:32.031Z,10.00
2022-11-27T19:20:31.239Z,10.90
2022-11-27T19:23:32.943Z,12.60
2022-11-27T19:26:34.653Z,13.00
2022-11-27T19:29:33.647Z,12.80
2022-11-27T19:32:32.540Z,14.30
2022-11-27T19:35:31.227Z,13.00
2022-11-27T19:38:38.727Z,13.60
2022-11-27T19:41:38.693Z,13.80
2022-11-27T19:44:38.047Z,15.30
2022-11-27T19:47:36.617Z,14.80
2022-11-27T19:50:37.436Z,14.70
2022-11-27T19:53:36.114Z,15.40
2022-11-27T19:56:35.968Z,16.30
2022-11-27T19:59:35.031Z,15.20
2022-11-27T20:02:33.154Z,16.60
2022-11-27T20:05:31.897Z,16.90
2022-11-27T20:08:33.527Z,17.20
2022-11-27T20:11:35.041Z,17.40
2022-11-27T20:14:34.135Z,17.90
2022-11-27T20:17:32.214Z,17.20
2022-11-27T20:20:34.096Z,16.20
2022-11-27T20:23:33.514Z,15.40
2022-11-27T20:26:32.259Z,15.90
2022-11-27T20:29:33.997Z,18.70
2022-11-27T20:32:35.182Z,13.10
2022-11-27T20:35:34.621Z,16.60
2022-11-27T20:38:33.867Z,15.40
2022-11-27T20:41:32.443Z,16.50
2022-11-27T20:44:32.166Z,17.40
2022-11-27T20:47:30.116Z,16.20
2022-11-27T20:50:31.830Z,15.20
2022-11-27T20:53:30.395Z,15.60
2022-11-27T20:56:28.865Z,15.70
2022-11-27T20:59:27.717Z,14.40
2022-11-27T21:02:26.001Z,14.90
2022-11-27T21:05:24.250Z,15.00
2022-11-27T21:08:22.561Z,16.30
2022-11-27T21:11:25.156Z,14.90
2022-11-27T21:14:22.763Z,14.30
2022-11-27T21:17:20.946Z,12.60
2022-11-27T21:20:21.273Z,14.40
2022-11-27T21:23:18.830Z,12.40
2022-11-27T21:26:16.926Z,12.80
2022-11-27T21:29:14.396Z,12.60
2022-11-27T21:32:11.946Z,14.70
2022-11-27T21:35:09.873Z,14.30
2022-11-27T21:38:08.212Z,14.90
2022-11-27T21:41:05.706Z,14.10
2022-11-27T21:44:03.647Z,15.30
2022-11-27T21:47:01.855Z,15.60
2022-11-27T21:49:59.329Z,16.50
2022-11-27T21:52:56.859Z,16.40
2022-11-27T21:55:54.303Z,14.40
2022-11-27T21:58:51.758Z,16.50
2022-11-27T22:01:49.381Z,15.90
2022-11-27T22:04:47.183Z,15.70
2022-11-27T22:07:44.673Z,15.50
2022-11-27T22:10:42.385Z,16.60
2022-11-27T22:13:39.993Z,15.40
2022-11-27T22:16:42.922Z,17.60
2022-11-27T22:19:42.573Z,15.30
2022-11-27T22:22:40.038Z,17.70
2022-11-27T22:25:37.497Z,17.30
2022-11-27T22:28:34.955Z,17.30
2022-11-27T22:31:33.639Z,14.80
2022-11-27T22:34:31.214Z,15.40
2022-11-27T22:37:29.049Z,15.20
2022-11-27T22:40:26.517Z,15.30
2022-11-27T22:43:23.989Z,15.00
2022-11-27T22:46:21.477Z,16.20
2022-11-27T22:49:19.006Z,16.00
2022-11-27T22:52:16.509Z,17.10
2022-11-27T22:55:14.002Z,16.00
2022-11-27T22:58:11.462Z,16.80
2022-11-27T23:01:09.243Z,16.10
2022-11-27T23:04:06.730Z,17.00
2022-11-27T23:07:04.212Z,16.90
2022-11-27T23:10:01.681Z,15.80
2022-11-27T23:12:59.140Z,17.20
2022-11-27T23:15:56.606Z,17.30
2022-11-27T23:18:54.080Z,17.60
2022-11-27T23:21:51.542Z,17.30
2022-11-27T23:24:49.000Z,19.50
2022-11-27T23:27:48.100Z,20.50
2022-11-27T23:30:45.572Z,18.50
2022-11-27T23:33:44.105Z,17.00
2022-11-27T23:36:41.677Z,18.10
2022-11-27T23:39:39.157Z,18.60
2022-11-27T23:42:36.641Z,18.30
2022-11-27T23:45:34.137Z,19.80
2022-11-27T23:48:31.667Z,19.60
2022-11-27T23:51:29.129Z,19.60
2022-11-27T23:54:26.843Z,19.40
2022-11-27T23:57:24.325Z,19.80
